createdAt,value
2018-09-17T00:00:24.481Z,12.30
2018-09-17T00:00:58.305Z,12.30
2018-09-17T00:01:32.201Z,12.40
2018-09-17T00:02:06.113Z,12.40
2018-09-17T00:02:39.958Z,12.40
2018-09-17T00:03:14.130Z,12.50
2018-09-17T00:03:48.115Z,12.40
2018-09-17T00:04:22.122Z,12.40
2018-09-17T00:04:55.996Z,12.40
2018-09-17T00:05:29.918Z,12.30
2018-09-17T00:06:03.804Z,12.30
2018-09-17T00:06:37.731Z,12.30
2018-09-17T00:07:11.825Z,12.40
2018-09-17T00:07:46.105Z,12.40
2018-09-17T00:08:19.859Z,12.30
2018-09-17T00:08:53.801Z,12.30
2018-09-17T00:09:27.572Z,12.30
2018-09-17T00:10:01.463Z,12.30
2018-09-17T00:10:35.421Z,12.20
2018-09-17T00:11:09.298Z,12.30
2018-09-17T00:11:43.055Z,12.30
2018-09-17T00:12:17.175Z,12.30
2018-09-17T00:12:51.290Z,12.30
2018-09-17T00:13:25.117Z,12.30
2018-09-17T00:13:58.953Z,12.30
2018-09-17T00:14:32.666Z,12.30
2018-09-17T00:15:06.442Z,12.30
2018-09-17T00:15:40.543Z,12.40
2018-09-17T00:16:14.408Z,12.30
2018-09-17T00:16:48.339Z,12.30
2018-09-17T00:17:22.129Z,12.30
2018-09-17T00:17:55.824Z,12.30
2018-09-17T00:18:29.810Z,12.40
2018-09-17T00:19:03.572Z,12.30
2018-09-17T00:19:37.468Z,12.30
2018-09-17T00:20:11.727Z,12.40
2018-09-17T00:20:45.404Z,12.40
2018-09-17T00:21:19.824Z,12.30
2018-09-17T00:21:53.645Z,12.30
2018-09-17T00:22:27.793Z,12.30
2018-09-17T00:23:01.759Z,12.30
2018-09-17T00:23:35.558Z,12.30
2018-09-17T00:24:09.505Z,12.30
2018-09-17T00:24:43.368Z,12.30
2018-09-17T00:25:17.547Z,12.20
2018-09-17T00:25:51.401Z,12.30
2018-09-17T00:26:25.187Z,12.30
2018-09-17T00:26:59.151Z,12.30
2018-09-17T00:27:32.918Z,12.30
2018-09-17T00:28:06.910Z,12.40
2018-09-17T00:28:40.850Z,12.30
2018-09-17T00:29:14.814Z,12.40
2018-09-17T00:29:48.833Z,12.40
2018-09-17T00:30:22.721Z,12.40
2018-09-17T00:30:56.595Z,12.30
2018-09-17T00:31:30.443Z,12.40
2018-09-17T00:32:04.163Z,12.40
2018-09-17T00:32:38.282Z,12.40
2018-09-17T00:33:12.028Z,12.40
2018-09-17T00:33:46.088Z,12.40
2018-09-17T00:34:19.938Z,12.40
2018-09-17T00:34:53.662Z,12.40
2018-09-17T00:35:27.302Z,12.40
2018-09-17T00:36:01.255Z,12.40
2018-09-17T00:36:35.191Z,12.40
2018-09-17T00:37:09.053Z,12.40
2018-09-17T00:37:42.840Z,12.40
2018-09-17T00:38:16.819Z,12.40
2018-09-17T00:38:50.720Z,12.40
2018-09-17T00:39:24.621Z,12.40
2018-09-17T00:39:58.328Z,12.40
2018-09-17T00:40:32.223Z,12.40
2018-09-17T00:41:05.907Z,12.40
2018-09-17T00:41:39.780Z,12.40
2018-09-17T00:42:13.891Z,12.40
2018-09-17T00:42:47.662Z,12.40
2018-09-17T00:43:21.411Z,12.40
2018-09-17T00:43:55.156Z,12.40
2018-09-17T00:44:29.167Z,12.40
2018-09-17T00:45:03.201Z,12.40
2018-09-17T00:45:37.000Z,12.40
2018-09-17T00:46:10.977Z,12.50
2018-09-17T00:46:44.723Z,12.50
2018-09-17T00:47:18.642Z,12.50
2018-09-17T00:47:52.726Z,12.40
2018-09-17T00:48:26.467Z,12.40
2018-09-17T00:49:00.264Z,12.50
2018-09-17T00:49:34.251Z,12.50
2018-09-17T00:50:07.998Z,12.40
2018-09-17T00:50:41.867Z,12.50
2018-09-17T00:51:16.455Z,12.50
2018-09-17T00:51:51.248Z,12.50
2018-09-17T00:52:24.981Z,12.50
2018-09-17T00:52:59.127Z,12.50
2018-09-17T00:53:33.106Z,12.50
2018-09-17T00:54:07.024Z,12.40
2018-09-17T00:54:40.879Z,12.40
2018-09-17T00:55:14.721Z,12.40
2018-09-17T00:55:48.683Z,12.40
2018-09-17T00:56:22.514Z,12.40
2018-09-17T00:56:56.464Z,12.40
2018-09-17T00:57:30.202Z,12.40
2018-09-17T00:58:04.801Z,12.40
2018-09-17T00:58:38.398Z,12.40
2018-09-17T00:59:12.004Z,12.40
2018-09-17T00:59:45.650Z,12.40
2018-09-17T01:00:19.450Z,12.40
2018-09-17T01:00:53.149Z,12.40
2018-09-17T01:01:27.114Z,12.40
2018-09-17T01:02:00.949Z,12.40
2018-09-17T01:02:34.903Z,12.40
2018-09-17T01:03:08.717Z,12.40
2018-09-17T01:03:42.491Z,12.40
2018-09-17T01:04:16.455Z,12.40
2018-09-17T01:04:50.379Z,12.40
2018-09-17T01:05:24.191Z,12.40
2018-09-17T01:06:04.808Z,12.40
2018-09-17T01:06:38.597Z,12.40
2018-09-17T01:07:12.296Z,12.40
2018-09-17T01:07:46.650Z,12.40
2018-09-17T01:08:20.387Z,12.40
2018-09-17T01:08:54.314Z,12.40
2018-09-17T01:09:33.666Z,12.40
2018-09-17T01:10:07.379Z,12.40
2018-09-17T01:10:41.227Z,12.40
2018-09-17T01:11:15.000Z,12.40
2018-09-17T01:11:48.892Z,12.40
2018-09-17T01:12:23.636Z,12.40
2018-09-17T01:12:57.819Z,12.40
2018-09-17T01:13:31.655Z,12.40
2018-09-17T01:14:05.470Z,12.30
2018-09-17T01:14:39.317Z,12.40
2018-09-17T01:15:13.021Z,12.40
2018-09-17T01:15:46.956Z,12.40
2018-09-17T01:16:20.721Z,12.40
2018-09-17T01:16:54.885Z,12.40
2018-09-17T01:17:28.719Z,12.30
2018-09-17T01:18:02.760Z,12.30
2018-09-17T01:18:36.863Z,12.40
2018-09-17T01:19:10.765Z,12.40
2018-09-17T01:19:44.572Z,12.30
2018-09-17T01:20:18.516Z,12.40
2018-09-17T01:20:52.371Z,12.30
2018-09-17T01:21:26.353Z,12.30
2018-09-17T01:21:59.995Z,12.30
2018-09-17T01:22:33.987Z,12.30
2018-09-17T01:23:08.021Z,12.30
2018-09-17T01:23:41.746Z,12.30
2018-09-17T01:24:15.468Z,12.30
2018-09-17T01:24:49.240Z,12.40
2018-09-17T01:25:23.148Z,12.40
2018-09-17T01:25:57.008Z,12.40
2018-09-17T01:26:30.953Z,12.40
2018-09-17T01:27:04.847Z,12.40
2018-09-17T01:27:38.631Z,12.30
2018-09-17T01:28:12.487Z,12.30
2018-09-17T01:28:46.404Z,12.30
2018-09-17T01:29:20.132Z,12.30
2018-09-17T01:29:54.047Z,12.30
2018-09-17T01:30:28.108Z,12.30
2018-09-17T01:31:02.081Z,12.30
2018-09-17T01:31:35.937Z,12.30
2018-09-17T01:32:09.735Z,12.30
2018-09-17T01:32:43.611Z,12.30
2018-09-17T01:33:17.309Z,12.30
2018-09-17T01:33:51.180Z,12.30
2018-09-17T01:34:25.216Z,12.30
2018-09-17T01:34:59.344Z,12.30
2018-09-17T01:35:33.407Z,12.30
2018-09-17T01:36:07.171Z,12.30
2018-09-17T01:36:40.964Z,12.30
2018-09-17T01:37:14.826Z,12.30
2018-09-17T01:37:48.697Z,12.30
2018-09-17T01:38:22.612Z,12.30
2018-09-17T01:38:56.311Z,12.30
2018-09-17T01:39:30.263Z,12.30
2018-09-17T01:40:04.157Z,12.30
2018-09-17T01:40:38.081Z,12.30
2018-09-17T01:41:12.289Z,12.30
2018-09-17T01:41:46.144Z,12.30
2018-09-17T01:42:19.902Z,12.30
2018-09-17T01:42:53.865Z,12.30
2018-09-17T01:43:27.992Z,12.30
2018-09-17T01:44:02.171Z,12.30
2018-09-17T01:44:36.058Z,12.30
2018-09-17T01:45:10.511Z,12.30
2018-09-17T01:45:44.267Z,12.30
2018-09-17T01:46:18.119Z,12.30
2018-09-17T01:46:51.872Z,12.30
2018-09-17T01:47:25.869Z,12.30
2018-09-17T01:47:59.702Z,12.30
2018-09-17T01:48:33.497Z,12.30
2018-09-17T01:49:07.323Z,12.30
2018-09-17T01:49:41.007Z,12.30
2018-09-17T01:50:14.767Z,12.30
2018-09-17T01:50:48.628Z,12.30
2018-09-17T01:51:22.588Z,12.30
2018-09-17T01:51:56.439Z,12.40
2018-09-17T01:52:30.351Z,12.30
2018-09-17T01:53:04.306Z,12.30
2018-09-17T01:53:38.302Z,12.30
2018-09-17T01:54:12.152Z,12.30
2018-09-17T01:54:45.836Z,12.30
2018-09-17T01:55:19.905Z,12.30
2018-09-17T01:55:53.780Z,12.30
2018-09-17T01:56:27.546Z,12.40
2018-09-17T01:57:01.373Z,12.30
2018-09-17T01:57:35.208Z,12.30
2018-09-17T01:58:09.017Z,12.30
2018-09-17T01:58:42.775Z,12.30
2018-09-17T01:59:16.745Z,12.30
2018-09-17T01:59:50.725Z,12.40
2018-09-17T02:00:24.531Z,12.30
2018-09-17T02:00:58.294Z,12.30
2018-09-17T02:01:32.233Z,12.30
2018-09-17T02:02:07.261Z,12.30
2018-09-17T02:02:41.367Z,12.30
2018-09-17T02:03:15.138Z,12.30
2018-09-17T02:03:48.959Z,12.30
2018-09-17T02:04:22.817Z,12.30
2018-09-17T02:04:56.708Z,12.30
2018-09-17T02:05:30.863Z,12.40
2018-09-17T02:06:04.788Z,12.30
2018-09-17T02:06:38.543Z,12.30
2018-09-17T02:07:12.558Z,12.40
2018-09-17T02:07:46.492Z,12.30
2018-09-17T02:08:20.304Z,12.30
2018-09-17T02:08:54.450Z,12.30
2018-09-17T02:09:28.196Z,12.30
2018-09-17T02:10:02.248Z,12.40
2018-09-17T02:10:36.056Z,12.30
2018-09-17T02:11:09.967Z,12.40
2018-09-17T02:11:43.759Z,12.30
2018-09-17T02:12:17.636Z,12.30
2018-09-17T02:12:51.399Z,12.30
2018-09-17T02:13:25.516Z,12.30
2018-09-17T02:13:59.316Z,12.30
2018-09-17T02:14:33.227Z,12.30
2018-09-17T02:15:07.120Z,12.30
2018-09-17T02:15:41.026Z,12.30
2018-09-17T02:16:14.915Z,12.30
2018-09-17T02:16:48.850Z,12.30
2018-09-17T02:17:22.752Z,12.30
2018-09-17T02:17:56.709Z,12.30
2018-09-17T02:18:30.491Z,12.30
2018-09-17T02:19:04.689Z,12.30
2018-09-17T02:19:38.895Z,12.40
2018-09-17T02:20:12.661Z,12.30
2018-09-17T02:20:46.578Z,12.30
2018-09-17T02:21:20.545Z,12.30
2018-09-17T02:21:54.344Z,12.30
2018-09-17T02:22:28.467Z,12.30
2018-09-17T02:23:02.242Z,12.30
2018-09-17T02:23:36.249Z,12.30
2018-09-17T02:24:10.135Z,12.30
2018-09-17T02:24:44.127Z,12.30
2018-09-17T02:25:18.016Z,12.30
2018-09-17T02:25:51.738Z,12.30
2018-09-17T02:26:25.810Z,12.40
2018-09-17T02:26:59.623Z,12.40
2018-09-17T02:27:33.579Z,12.40
2018-09-17T02:28:07.386Z,12.50
2018-09-17T02:28:41.624Z,12.40
2018-09-17T02:29:15.464Z,12.50
2018-09-17T02:29:49.403Z,12.50
2018-09-17T02:30:23.304Z,12.50
2018-09-17T02:30:57.096Z,12.50
2018-09-17T02:31:30.775Z,12.50
2018-09-17T02:32:04.556Z,12.50
2018-09-17T02:32:38.549Z,12.50
2018-09-17T02:33:12.538Z,12.50
2018-09-17T02:33:46.782Z,12.50
2018-09-17T02:34:20.661Z,12.50
2018-09-17T02:34:54.648Z,12.50
2018-09-17T02:35:28.512Z,12.50
2018-09-17T02:36:02.576Z,12.50
2018-09-17T02:36:36.498Z,12.50
2018-09-17T02:37:10.444Z,12.50
2018-09-17T02:37:44.145Z,12.50
2018-09-17T02:38:18.231Z,12.50
2018-09-17T02:38:52.212Z,12.40
2018-09-17T02:39:26.138Z,12.40
2018-09-17T02:40:00.104Z,12.50
2018-09-17T02:40:33.767Z,12.50
2018-09-17T02:41:07.728Z,12.50
2018-09-17T02:41:41.685Z,12.50
2018-09-17T02:42:16.144Z,12.50
2018-09-17T02:42:50.422Z,12.50
2018-09-17T02:43:24.385Z,12.50
2018-09-17T02:43:58.408Z,12.50
2018-09-17T02:44:32.099Z,12.50
2018-09-17T02:45:06.412Z,12.50
2018-09-17T02:45:40.565Z,12.50
2018-09-17T02:46:14.364Z,12.50
2018-09-17T02:46:48.150Z,12.50
2018-09-17T02:47:22.021Z,12.60
2018-09-17T02:47:55.972Z,12.60
2018-09-17T02:48:29.753Z,12.70
2018-09-17T02:49:03.381Z,12.70
2018-09-17T02:49:37.467Z,12.60
2018-09-17T02:50:11.465Z,12.60
2018-09-17T02:50:45.451Z,12.60
2018-09-17T02:51:19.355Z,12.60
2018-09-17T02:51:53.156Z,12.60
2018-09-17T02:52:27.135Z,12.60
2018-09-17T02:53:01.036Z,12.60
2018-09-17T02:53:34.921Z,12.70
2018-09-17T02:54:08.733Z,12.70
2018-09-17T02:54:42.653Z,12.70
2018-09-17T02:55:16.528Z,12.70
2018-09-17T02:55:50.284Z,12.60
2018-09-17T02:56:24.163Z,12.70
2018-09-17T02:56:57.892Z,12.60
2018-09-17T02:57:31.957Z,12.60
2018-09-17T02:58:05.672Z,12.60
2018-09-17T02:58:39.706Z,12.60
2018-09-17T02:59:13.631Z,12.60
2018-09-17T02:59:47.446Z,12.60
2018-09-17T03:00:21.296Z,12.60
2018-09-17T03:00:55.012Z,12.50
2018-09-17T03:01:28.671Z,12.50
2018-09-17T03:02:02.771Z,12.50
2018-09-17T03:02:36.726Z,12.50
2018-09-17T03:03:10.402Z,12.50
2018-09-17T03:03:44.430Z,12.50
2018-09-17T03:04:18.203Z,12.50
2018-09-17T03:04:52.039Z,12.50
2018-09-17T03:05:25.780Z,12.50
2018-09-17T03:05:59.475Z,12.50
2018-09-17T03:06:33.473Z,12.50
2018-09-17T03:07:07.369Z,12.50
2018-09-17T03:07:41.428Z,12.50
2018-09-17T03:08:15.324Z,12.60
2018-09-17T03:08:49.133Z,12.50
2018-09-17T03:09:22.927Z,12.50
2018-09-17T03:09:57.035Z,12.50
2018-09-17T03:10:30.847Z,12.50
2018-09-17T03:11:04.617Z,12.50
2018-09-17T03:11:38.532Z,12.50
2018-09-17T03:12:12.832Z,12.50
2018-09-17T03:12:46.780Z,12.50
2018-09-17T03:13:20.835Z,12.50
2018-09-17T03:13:54.790Z,12.50
2018-09-17T03:14:29.738Z,12.50
2018-09-17T03:15:15.004Z,12.50
2018-09-17T03:15:54.080Z,12.50
2018-09-17T03:16:28.020Z,12.50
2018-09-17T03:17:11.695Z,12.40
2018-09-17T03:17:45.712Z,12.40
2018-09-17T03:18:32.737Z,12.40
2018-09-17T03:19:06.404Z,12.40
2018-09-17T03:19:41.460Z,12.50
2018-09-17T03:20:15.532Z,12.40
2018-09-17T03:20:49.523Z,12.40
2018-09-17T03:21:23.657Z,12.40
2018-09-17T03:21:57.699Z,12.40
2018-09-17T03:22:31.532Z,12.40
2018-09-17T03:23:05.475Z,12.40
2018-09-17T03:23:39.293Z,12.40
2018-09-17T03:24:13.327Z,12.40
2018-09-17T03:24:47.173Z,12.40
2018-09-17T03:25:21.302Z,12.40
2018-09-17T03:25:55.065Z,12.40
2018-09-17T03:26:28.881Z,12.40
2018-09-17T03:27:02.741Z,12.40
2018-09-17T03:27:36.507Z,12.40
2018-09-17T03:28:10.333Z,12.50
2018-09-17T03:28:44.058Z,12.40
2018-09-17T03:29:18.807Z,12.50
2018-09-17T03:29:53.001Z,12.40
2018-09-17T03:30:26.963Z,12.40
2018-09-17T03:31:00.656Z,12.40
2018-09-17T03:31:34.611Z,12.40
2018-09-17T03:32:08.476Z,12.40
2018-09-17T03:32:42.266Z,12.30
2018-09-17T03:33:16.125Z,12.30
2018-09-17T03:33:49.856Z,12.30
2018-09-17T03:34:24.057Z,12.40
2018-09-17T03:34:57.946Z,12.30
2018-09-17T03:35:31.921Z,12.40
2018-09-17T03:36:05.878Z,12.40
2018-09-17T03:36:39.727Z,12.40
2018-09-17T03:37:13.408Z,12.40
2018-09-17T03:37:47.392Z,12.40
2018-09-17T03:38:47.147Z,12.40
2018-09-17T03:39:21.209Z,12.40
2018-09-17T03:39:57.247Z,12.30
2018-09-17T03:40:31.347Z,12.30
2018-09-17T03:41:06.363Z,12.30
2018-09-17T03:41:40.169Z,12.30
2018-09-17T03:42:13.875Z,12.30
2018-09-17T03:42:47.652Z,12.30
2018-09-17T03:43:21.807Z,12.30
2018-09-17T03:43:55.925Z,12.30
2018-09-17T03:44:29.761Z,12.30
2018-09-17T03:45:03.529Z,12.30
2018-09-17T03:45:37.410Z,12.30
2018-09-17T03:46:11.422Z,12.30
2018-09-17T03:46:45.110Z,12.30
2018-09-17T03:47:19.093Z,12.30
2018-09-17T03:47:52.978Z,12.30
2018-09-17T03:48:27.368Z,12.30
2018-09-17T03:49:01.276Z,12.30
2018-09-17T03:49:35.980Z,12.30
2018-09-17T03:50:09.817Z,12.30
2018-09-17T03:50:43.817Z,12.30
2018-09-17T03:51:17.690Z,12.30
2018-09-17T03:51:51.483Z,12.30
2018-09-17T03:52:25.239Z,12.30
2018-09-17T03:52:59.112Z,12.30
2018-09-17T03:53:33.472Z,12.30
2018-09-17T03:54:07.183Z,12.30
2018-09-17T03:54:41.035Z,12.20
2018-09-17T03:55:15.288Z,12.20
2018-09-17T03:55:49.072Z,12.20
2018-09-17T03:56:23.037Z,12.20
2018-09-17T03:56:56.859Z,12.30
2018-09-17T03:57:30.823Z,12.30
2018-09-17T03:58:04.767Z,12.20
2018-09-17T03:58:38.693Z,12.20
2018-09-17T03:59:12.423Z,12.20
2018-09-17T03:59:46.180Z,12.20
2018-09-17T04:00:20.249Z,12.20
2018-09-17T04:00:54.325Z,12.20
2018-09-17T04:01:28.100Z,12.30
2018-09-17T04:02:01.921Z,12.20
2018-09-17T04:02:35.815Z,12.20
2018-09-17T04:03:10.092Z,12.20
2018-09-17T04:03:44.287Z,12.20
2018-09-17T04:04:18.264Z,12.20
2018-09-17T04:04:52.405Z,12.30
2018-09-17T04:05:26.038Z,12.30
2018-09-17T04:05:59.983Z,12.30
2018-09-17T04:06:33.740Z,12.30
2018-09-17T04:07:07.704Z,12.30
2018-09-17T04:07:41.539Z,12.30
2018-09-17T04:08:15.372Z,12.30
2018-09-17T04:08:49.153Z,12.30
2018-09-17T04:09:23.033Z,12.30
2018-09-17T04:09:57.207Z,12.30
2018-09-17T04:10:31.148Z,12.30
2018-09-17T04:11:05.113Z,12.30
2018-09-17T04:11:38.879Z,12.30
2018-09-17T04:12:14.085Z,12.30
2018-09-17T04:12:47.896Z,12.30
2018-09-17T04:13:21.860Z,12.30
2018-09-17T04:13:55.944Z,12.30
2018-09-17T04:14:30.039Z,12.20
2018-09-17T04:15:03.939Z,12.30
2018-09-17T04:15:37.691Z,12.30
2018-09-17T04:16:11.608Z,12.40
2018-09-17T04:16:45.276Z,12.40
2018-09-17T04:17:18.972Z,12.40
2018-09-17T04:17:52.648Z,12.40
2018-09-17T04:18:26.435Z,12.40
2018-09-17T04:19:00.376Z,12.50
2018-09-17T04:19:34.102Z,12.50
2018-09-17T04:20:07.980Z,12.60
2018-09-17T04:20:41.772Z,12.50
2018-09-17T04:21:15.693Z,12.50
2018-09-17T04:21:49.740Z,12.50
2018-09-17T04:22:23.624Z,12.50
2018-09-17T04:22:57.422Z,12.50
2018-09-17T04:23:35.443Z,12.50
2018-09-17T04:24:09.159Z,12.50
2018-09-17T04:24:42.895Z,12.50
2018-09-17T04:25:16.613Z,12.50
2018-09-17T04:25:50.489Z,12.50
2018-09-17T04:26:24.963Z,12.50
2018-09-17T04:26:58.934Z,12.50
2018-09-17T04:27:32.768Z,12.50
2018-09-17T04:28:06.876Z,12.50
2018-09-17T04:28:41.080Z,12.50
2018-09-17T04:29:14.979Z,12.50
2018-09-17T04:29:48.696Z,12.60
2018-09-17T04:30:22.660Z,12.60
2018-09-17T04:30:56.877Z,12.60
2018-09-17T04:31:30.888Z,12.60
2018-09-17T04:32:04.790Z,12.60
2018-09-17T04:32:38.873Z,12.60
2018-09-17T04:33:12.902Z,12.60
2018-09-17T04:33:46.744Z,12.60
2018-09-17T04:34:20.501Z,12.60
2018-09-17T04:34:54.332Z,12.60
2018-09-17T04:35:28.984Z,12.70
2018-09-17T04:36:03.076Z,12.70
2018-09-17T04:36:37.115Z,12.70
2018-09-17T04:37:11.268Z,12.70
2018-09-17T04:37:45.660Z,12.70
2018-09-17T04:38:19.455Z,12.70
2018-09-17T04:38:53.513Z,12.70
2018-09-17T04:39:28.578Z,12.70
2018-09-17T04:40:02.539Z,12.70
2018-09-17T04:40:36.375Z,12.70
2018-09-17T04:41:10.139Z,12.70
2018-09-17T04:41:44.088Z,12.70
2018-09-17T04:42:17.957Z,12.70
2018-09-17T04:42:51.672Z,12.70
2018-09-17T04:43:25.619Z,12.70
2018-09-17T04:43:59.599Z,12.70
2018-09-17T04:44:33.645Z,12.70
2018-09-17T04:45:07.481Z,12.70
2018-09-17T04:45:41.731Z,12.70
2018-09-17T04:46:15.522Z,12.70
2018-09-17T04:46:49.265Z,12.70
2018-09-17T04:47:23.064Z,12.70
2018-09-17T04:47:57.178Z,12.70
2018-09-17T04:48:31.113Z,12.70
2018-09-17T04:49:04.952Z,12.70
2018-09-17T04:49:38.896Z,12.70
2018-09-17T04:50:12.762Z,12.70
2018-09-17T04:50:46.807Z,12.70
2018-09-17T04:51:20.728Z,12.80
2018-09-17T04:51:54.333Z,12.80
2018-09-17T04:52:28.286Z,12.80
2018-09-17T04:53:02.150Z,12.80
2018-09-17T04:53:36.006Z,12.80
2018-09-17T04:54:09.946Z,12.70
2018-09-17T04:54:43.887Z,12.70
2018-09-17T04:55:17.710Z,12.70
2018-09-17T04:55:51.714Z,12.70
2018-09-17T04:56:25.604Z,12.70
2018-09-17T04:56:59.407Z,12.80
2018-09-17T04:57:33.300Z,12.80
2018-09-17T04:58:07.538Z,12.80
2018-09-17T04:58:41.391Z,12.80
2018-09-17T04:59:15.141Z,12.80
2018-09-17T04:59:48.980Z,12.80
2018-09-17T05:00:22.923Z,12.80
2018-09-17T05:00:56.607Z,12.80
2018-09-17T05:01:30.788Z,12.80
2018-09-17T05:02:04.863Z,12.90
2018-09-17T05:02:38.621Z,12.90
2018-09-17T05:03:12.752Z,12.90
2018-09-17T05:03:46.736Z,12.80
2018-09-17T05:04:20.635Z,12.80
2018-09-17T05:04:54.332Z,12.80
2018-09-17T05:05:28.141Z,12.80
2018-09-17T05:06:02.223Z,12.80
2018-09-17T05:06:36.199Z,12.80
2018-09-17T05:07:10.102Z,12.80
2018-09-17T05:07:43.888Z,12.80
2018-09-17T05:08:17.703Z,12.80
2018-09-17T05:09:09.985Z,12.80
2018-09-17T05:09:44.832Z,12.80
2018-09-17T05:10:18.680Z,12.80
2018-09-17T05:10:52.513Z,12.80
2018-09-17T05:11:26.435Z,12.90
2018-09-17T05:12:00.214Z,12.80
2018-09-17T05:12:34.011Z,12.90
2018-09-17T05:13:08.160Z,12.80
2018-09-17T05:13:41.947Z,12.80
2018-09-17T05:14:15.640Z,12.90
2018-09-17T05:14:49.301Z,12.80
2018-09-17T05:15:23.413Z,12.80
2018-09-17T05:15:57.064Z,12.90
2018-09-17T05:16:31.076Z,12.80
2018-09-17T05:17:05.544Z,12.90
2018-09-17T05:17:39.452Z,12.90
2018-09-17T05:18:13.286Z,12.80
2018-09-17T05:18:47.560Z,12.90
2018-09-17T05:19:21.418Z,12.80
2018-09-17T05:19:55.217Z,12.90
2018-09-17T05:20:29.327Z,12.90
2018-09-17T05:21:03.244Z,12.90
2018-09-17T05:21:37.187Z,12.80
2018-09-17T05:22:10.985Z,12.90
2018-09-17T05:22:44.687Z,12.80
2018-09-17T05:23:18.581Z,12.80
2018-09-17T05:23:52.507Z,12.80
2018-09-17T05:24:26.256Z,12.90
2018-09-17T05:25:00.048Z,12.90
2018-09-17T05:25:33.904Z,12.80
2018-09-17T05:26:07.875Z,12.80
2018-09-17T05:26:41.563Z,12.80
2018-09-17T05:27:15.550Z,12.80
2018-09-17T05:27:49.372Z,12.80
2018-09-17T05:28:23.034Z,12.80
2018-09-17T05:28:56.919Z,12.80
2018-09-17T05:29:30.808Z,12.80
2018-09-17T05:30:05.010Z,12.80
2018-09-17T05:30:38.728Z,12.80
2018-09-17T05:31:12.623Z,12.80
2018-09-17T05:31:46.653Z,12.80
2018-09-17T05:32:20.374Z,12.80
2018-09-17T05:32:55.010Z,12.90
2018-09-17T05:33:28.723Z,12.90
2018-09-17T05:34:02.740Z,12.90
2018-09-17T05:34:36.697Z,12.90
2018-09-17T05:35:10.751Z,12.90
2018-09-17T05:35:44.909Z,12.90
2018-09-17T05:36:18.704Z,12.90
2018-09-17T05:36:52.599Z,12.90
2018-09-17T05:37:26.535Z,12.90
2018-09-17T05:38:00.372Z,12.90
2018-09-17T05:38:34.355Z,13.00
2018-09-17T05:39:09.716Z,13.00
2018-09-17T05:39:43.598Z,13.00
2018-09-17T05:40:17.672Z,13.00
2018-09-17T05:40:51.695Z,13.00
2018-09-17T05:41:25.405Z,13.00
2018-09-17T05:41:59.663Z,13.00
2018-09-17T05:42:33.773Z,13.00
2018-09-17T05:43:07.759Z,13.00
2018-09-17T05:43:41.784Z,13.10
2018-09-17T05:44:15.648Z,13.00
2018-09-17T05:44:49.462Z,13.10
2018-09-17T05:45:23.590Z,13.10
2018-09-17T05:45:57.339Z,13.10
2018-09-17T05:46:31.056Z,13.10
2018-09-17T05:47:04.844Z,13.10
2018-09-17T05:47:38.742Z,13.10
2018-09-17T05:48:12.925Z,13.10
2018-09-17T05:48:47.040Z,13.10
2018-09-17T05:49:20.886Z,13.10
2018-09-17T05:49:54.611Z,13.10
2018-09-17T05:50:28.380Z,13.10
2018-09-17T05:51:02.089Z,13.20
2018-09-17T05:51:36.323Z,13.20
2018-09-17T05:52:10.177Z,13.20
2018-09-17T05:52:44.407Z,13.20
2018-09-17T05:53:18.170Z,13.20
2018-09-17T05:53:52.206Z,13.20
2018-09-17T05:54:26.079Z,13.20
2018-09-17T05:55:00.011Z,13.20
2018-09-17T05:55:33.847Z,13.20
2018-09-17T05:56:08.040Z,13.20
2018-09-17T05:56:41.904Z,13.30
2018-09-17T05:57:15.928Z,13.30
2018-09-17T05:57:49.851Z,13.30
2018-09-17T05:58:23.533Z,13.30
2018-09-17T05:58:57.210Z,13.30
2018-09-17T05:59:31.227Z,13.30
2018-09-17T06:00:06.778Z,13.30
2018-09-17T06:00:40.580Z,13.30
2018-09-17T06:01:14.542Z,13.40
2018-09-17T06:01:48.502Z,13.30
2018-09-17T06:02:22.212Z,13.30
2018-09-17T06:02:57.590Z,13.40
2018-09-17T06:03:31.250Z,13.40
2018-09-17T06:04:05.029Z,13.40
2018-09-17T06:04:38.715Z,13.40
2018-09-17T06:05:12.879Z,13.40
2018-09-17T06:05:46.880Z,13.50
2018-09-17T06:06:20.724Z,13.40
2018-09-17T06:06:56.895Z,13.40
2018-09-17T06:07:30.973Z,13.50
2018-09-17T06:08:05.191Z,13.50
2018-09-17T06:08:39.096Z,13.50
2018-09-17T06:09:13.403Z,13.50
2018-09-17T06:09:47.280Z,13.50
2018-09-17T06:10:21.158Z,13.50
2018-09-17T06:10:55.199Z,13.50
2018-09-17T06:11:29.056Z,13.50
2018-09-17T06:12:03.266Z,13.50
2018-09-17T06:12:37.022Z,13.50
2018-09-17T06:13:10.979Z,13.60
2018-09-17T06:13:45.114Z,13.60
2018-09-17T06:14:19.003Z,13.60
2018-09-17T06:14:52.940Z,13.60
2018-09-17T06:15:26.913Z,13.60
2018-09-17T06:16:00.751Z,13.70
2018-09-17T06:16:34.642Z,13.70
2018-09-17T06:17:08.561Z,13.70
2018-09-17T06:17:42.804Z,13.70
2018-09-17T06:18:16.841Z,13.70
2018-09-17T06:18:50.631Z,13.70
2018-09-17T06:19:24.500Z,13.70
2018-09-17T06:19:58.323Z,13.80
2018-09-17T06:20:32.296Z,13.80
2018-09-17T06:21:06.736Z,13.80
2018-09-17T06:21:40.667Z,13.80
2018-09-17T06:22:14.810Z,13.80
2018-09-17T06:22:48.720Z,13.80
2018-09-17T06:23:22.846Z,13.80
2018-09-17T06:23:56.565Z,13.80
2018-09-17T06:24:30.504Z,13.90
2018-09-17T06:25:04.435Z,13.90
2018-09-17T06:25:38.268Z,13.90
2018-09-17T06:26:12.094Z,13.90
2018-09-17T06:26:45.976Z,13.90
2018-09-17T06:27:19.952Z,13.90
2018-09-17T06:27:53.712Z,13.90
2018-09-17T06:28:27.609Z,14.00
2018-09-17T06:29:01.513Z,14.00
2018-09-17T06:29:35.292Z,14.00
2018-09-17T06:30:09.318Z,14.00
2018-09-17T06:30:43.301Z,14.00
2018-09-17T06:31:17.179Z,14.00
2018-09-17T06:31:50.908Z,14.00
2018-09-17T06:32:24.839Z,14.00
2018-09-17T06:32:58.585Z,14.10
2018-09-17T06:33:32.312Z,14.00
2018-09-17T06:34:06.904Z,14.10
2018-09-17T06:34:40.651Z,14.10
2018-09-17T06:35:14.441Z,14.10
2018-09-17T06:35:48.681Z,14.10
2018-09-17T06:36:22.770Z,14.10
2018-09-17T06:37:30.169Z,14.20
2018-09-17T06:38:03.928Z,14.20
2018-09-17T06:38:37.967Z,14.20
2018-09-17T06:39:11.841Z,14.20
2018-09-17T06:39:45.748Z,14.20
2018-09-17T06:40:19.701Z,14.20
2018-09-17T06:40:53.596Z,14.20
2018-09-17T06:41:28.378Z,14.30
2018-09-17T06:42:02.171Z,14.30
2018-09-17T06:42:36.041Z,14.30
2018-09-17T06:43:09.932Z,14.30
2018-09-17T06:43:43.619Z,14.30
2018-09-17T06:44:17.897Z,14.30
2018-09-17T06:44:51.790Z,14.30
2018-09-17T06:45:25.820Z,14.40
2018-09-17T06:45:59.705Z,14.40
2018-09-17T06:46:33.916Z,14.50
2018-09-17T06:47:07.724Z,14.50
2018-09-17T06:47:41.359Z,14.50
2018-09-17T06:48:15.143Z,14.50
2018-09-17T06:48:48.998Z,14.50
2018-09-17T06:49:23.020Z,14.50
2018-09-17T06:49:56.704Z,14.50
2018-09-17T06:50:30.767Z,14.60
2018-09-17T06:51:04.760Z,14.60
2018-09-17T06:51:38.577Z,14.60
2018-09-17T06:52:12.557Z,14.60
2018-09-17T06:52:46.336Z,14.60
2018-09-17T06:53:20.456Z,14.60
2018-09-17T06:53:54.591Z,14.70
2018-09-17T06:54:28.261Z,14.70
2018-09-17T06:55:02.257Z,14.70
2018-09-17T06:55:36.080Z,14.70
2018-09-17T06:56:09.914Z,14.70
2018-09-17T06:56:43.827Z,14.70
2018-09-17T06:57:18.128Z,14.80
2018-09-17T06:57:52.069Z,14.80
2018-09-17T06:58:26.100Z,14.80
2018-09-17T06:58:59.902Z,14.80
2018-09-17T06:59:33.786Z,14.80
2018-09-17T07:00:07.650Z,14.80
2018-09-17T07:00:41.760Z,14.90
2018-09-17T07:01:15.708Z,14.90
2018-09-17T07:01:49.503Z,14.90
2018-09-17T07:02:23.550Z,14.90
2018-09-17T07:02:57.473Z,15.00
2018-09-17T07:03:31.443Z,15.00
2018-09-17T07:04:05.358Z,15.00
2018-09-17T07:04:39.128Z,15.00
2018-09-17T07:05:13.143Z,15.00
2018-09-17T07:05:46.993Z,15.10
2018-09-17T07:06:20.897Z,15.10
2018-09-17T07:06:55.245Z,15.10
2018-09-17T07:07:29.384Z,15.10
2018-09-17T07:08:03.180Z,15.10
2018-09-17T07:08:36.959Z,15.20
2018-09-17T07:09:11.728Z,15.20
2018-09-17T07:09:45.526Z,15.30
2018-09-17T07:10:19.552Z,15.20
2018-09-17T07:10:53.424Z,15.30
2018-09-17T07:11:27.207Z,15.30
2018-09-17T07:12:01.561Z,15.30
2018-09-17T07:12:35.376Z,15.40
2018-09-17T07:13:09.403Z,15.40
2018-09-17T07:13:43.311Z,15.40
2018-09-17T07:14:16.924Z,15.40
2018-09-17T07:14:50.763Z,15.40
2018-09-17T07:15:24.724Z,15.40
2018-09-17T07:15:58.660Z,15.50
2018-09-17T07:16:32.672Z,15.50
2018-09-17T07:17:06.494Z,15.50
2018-09-17T07:17:40.426Z,15.50
2018-09-17T07:18:14.565Z,15.50
2018-09-17T07:18:48.759Z,15.60
2018-09-17T07:19:22.870Z,15.60